sensor_id;sensor_type;location;lat;lon;timestamp;pressure;altitude;pressure_sealevel;temperature;humidity
86111;BME280;76766;52.874;11.218;2024-02-28T00:01:31;101770.59;;;18.02;50.72
86111;BME280;76766;52.874;11.218;2024-02-28T00:03:56;101763.50;;;18.01;50.91
86111;BME280;76766;52.874;11.218;2024-02-28T00:06:22;101766.19;;;18.01;51.08
86111;BME280;76766;52.874;11.218;2024-02-28T00:08:47;101767.22;;;18.00;51.17
86111;BME280;76766;52.874;11.218;2024-02-28T00:11:13;101772.84;;;17.98;51.29
86111;BME280;76766;52.874;11.218;2024-02-28T00:13:38;101776.38;;;17.99;51.33
86111;BME280;76766;52.874;11.218;2024-02-28T00:16:03;101784.88;;;17.96;51.54
86111;BME280;76766;52.874;11.218;2024-02-28T00:18:29;101783.22;;;17.95;51.71
86111;BME280;76766;52.874;11.218;2024-02-28T00:20:56;101780.50;;;17.95;51.69
86111;BME280;76766;52.874;11.218;2024-02-28T00:23:22;101780.28;;;17.90;51.79
86111;BME280;76766;52.874;11.218;2024-02-28T00:25:47;101776.75;;;17.89;51.91
86111;BME280;76766;52.874;11.218;2024-02-28T00:28:12;101791.25;;;17.88;51.81
86111;BME280;76766;52.874;11.218;2024-02-28T00:30:38;101787.09;;;17.86;52.27
86111;BME280;76766;52.874;11.218;2024-02-28T00:33:03;101782.53;;;17.86;52.22
86111;BME280;76766;52.874;11.218;2024-02-28T00:35:32;101785.44;;;17.85;52.19
86111;BME280;76766;52.874;11.218;2024-02-28T00:37:59;101790.19;;;17.83;52.34
86111;BME280;76766;52.874;11.218;2024-02-28T00:40:24;101792.91;;;17.83;52.31
86111;BME280;76766;52.874;11.218;2024-02-28T00:42:50;101785.84;;;17.82;52.48
86111;BME280;76766;52.874;11.218;2024-02-28T00:45:16;101793.09;;;17.81;52.44
86111;BME280;76766;52.874;11.218;2024-02-28T00:47:41;101798.69;;;17.80;52.45
86111;BME280;76766;52.874;11.218;2024-02-28T00:50:07;101795.19;;;17.79;52.58
86111;BME280;76766;52.874;11.218;2024-02-28T00:52:33;101789.13;;;17.77;52.61
86111;BME280;76766;52.874;11.218;2024-02-28T00:54:58;101785.78;;;17.75;52.63
86111;BME280;76766;52.874;11.218;2024-02-28T00:57:24;101791.19;;;17.75;52.73
86111;BME280;76766;52.874;11.218;2024-02-28T00:59:50;101794.06;;;17.74;52.70
86111;BME280;76766;52.874;11.218;2024-02-28T01:02:15;101791.59;;;17.72;52.77
86111;BME280;76766;52.874;11.218;2024-02-28T01:04:41;101788.88;;;17.72;52.79
86111;BME280;76766;52.874;11.218;2024-02-28T01:07:06;101783.69;;;17.71;52.80
86111;BME280;76766;52.874;11.218;2024-02-28T01:09:32;101781.00;;;17.71;52.90
86111;BME280;76766;52.874;11.218;2024-02-28T01:11:57;101779.50;;;17.68;52.82
86111;BME280;76766;52.874;11.218;2024-02-28T01:14:23;101784.09;;;17.68;52.86
86111;BME280;76766;52.874;11.218;2024-02-28T01:16:48;101777.84;;;17.67;52.89
86111;BME280;76766;52.874;11.218;2024-02-28T01:19:15;101783.44;;;17.65;52.93
86111;BME280;76766;52.874;11.218;2024-02-28T01:21:41;101775.53;;;17.64;52.95
86111;BME280;76766;52.874;11.218;2024-02-28T01:24:06;101774.69;;;17.63;53.03
86111;BME280;76766;52.874;11.218;2024-02-28T01:26:32;101781.97;;;17.63;53.10
86111;BME280;76766;52.874;11.218;2024-02-28T01:28:57;101780.28;;;17.62;53.20
86111;BME280;76766;52.874;11.218;2024-02-28T01:31:23;101777.78;;;17.60;53.17
86111;BME280;76766;52.874;11.218;2024-02-28T01:33:48;101774.47;;;17.58;53.17
86111;BME280;76766;52.874;11.218;2024-02-28T01:36:13;101773.63;;;17.58;53.12
86111;BME280;76766;52.874;11.218;2024-02-28T01:38:39;101778.81;;;17.59;53.19
86111;BME280;76766;52.874;11.218;2024-02-28T01:41:04;101766.75;;;17.55;53.27
86111;BME280;76766;52.874;11.218;2024-02-28T01:43:31;101774.03;;;17.55;53.44
86111;BME280;76766;52.874;11.218;2024-02-28T01:45:57;101772.16;;;17.55;53.33
86111;BME280;76766;52.874;11.218;2024-02-28T01:48:25;101775.03;;;17.54;53.34
86111;BME280;76766;52.874;11.218;2024-02-28T01:50:50;101771.47;;;17.53;53.36
86111;BME280;76766;52.874;11.218;2024-02-28T01:53:16;101773.53;;;17.51;53.43
86111;BME280;76766;52.874;11.218;2024-02-28T01:55:41;101779.78;;;17.52;53.41
86111;BME280;76766;52.874;11.218;2024-02-28T01:58:07;101784.16;;;17.53;53.50
86111;BME280;76766;52.874;11.218;2024-02-28T02:00:35;101781.63;;;17.51;53.54
86111;BME280;76766;52.874;11.218;2024-02-28T02:03:03;101780.16;;;17.49;53.59
86111;BME280;76766;52.874;11.218;2024-02-28T02:05:29;101768.75;;;17.47;53.56
86111;BME280;76766;52.874;11.218;2024-02-28T02:07:56;101770.59;;;17.46;53.51
86111;BME280;76766;52.874;11.218;2024-02-28T02:10:22;101766.22;;;17.45;53.64
86111;BME280;76766;52.874;11.218;2024-02-28T02:12:48;101769.75;;;17.46;53.65
86111;BME280;76766;52.874;11.218;2024-02-28T02:15:13;101778.88;;;17.45;53.51
86111;BME280;76766;52.874;11.218;2024-02-28T02:17:39;101778.88;;;17.45;53.57
86111;BME280;76766;52.874;11.218;2024-02-28T02:20:05;101776.19;;;17.45;53.59
86111;BME280;76766;52.874;11.218;2024-02-28T02:22:37;101772.84;;;17.43;53.61
86111;BME280;76766;52.874;11.218;2024-02-28T02:25:03;101762.06;;;17.43;53.66
86111;BME280;76766;52.874;11.218;2024-02-28T02:27:29;101773.91;;;17.42;53.64
86111;BME280;76766;52.874;11.218;2024-02-28T02:29:54;101774.91;;;17.41;53.66
86111;BME280;76766;52.874;11.218;2024-02-28T02:32:20;101772.41;;;17.39;53.81
86111;BME280;76766;52.874;11.218;2024-02-28T02:34:45;101768.22;;;17.37;53.74
86111;BME280;76766;52.874;11.218;2024-02-28T02:37:10;101770.94;;;17.37;53.81
86111;BME280;76766;52.874;11.218;2024-02-28T02:39:36;101770.94;;;17.37;53.85
86111;BME280;76766;52.874;11.218;2024-02-28T02:42:01;101771.97;;;17.36;53.79
86111;BME280;76766;52.874;11.218;2024-02-28T02:44:27;101760.34;;;17.35;54.08
86111;BME280;76766;52.874;11.218;2024-02-28T02:46:52;101757.66;;;17.35;54.04
86111;BME280;76766;52.874;11.218;2024-02-28T02:49:17;101760.53;;;17.34;54.09
86111;BME280;76766;52.874;11.218;2024-02-28T02:51:44;101758.88;;;17.33;54.26
86111;BME280;76766;52.874;11.218;2024-02-28T02:54:10;101748.91;;;17.33;53.98
86111;BME280;76766;52.874;11.218;2024-02-28T02:56:36;101760.53;;;17.34;54.09
86111;BME280;76766;52.874;11.218;2024-02-28T02:59:01;101758.88;;;17.33;53.99
86111;BME280;76766;52.874;11.218;2024-02-28T03:01:27;101759.72;;;17.33;54.10
86111;BME280;76766;52.874;11.218;2024-02-28T03:03:52;101766.31;;;17.31;54.09
86111;BME280;76766;52.874;11.218;2024-02-28T03:06:17;101764.66;;;17.30;54.06
86111;BME280;76766;52.874;11.218;2024-02-28T03:08:43;101746.63;;;17.30;54.06
86111;BME280;76766;52.874;11.218;2024-02-28T03:11:08;101743.25;;;17.28;54.08
86111;BME280;76766;52.874;11.218;2024-02-28T03:13:34;101749.69;;;17.27;54.12
86111;BME280;76766;52.874;11.218;2024-02-28T03:15:59;101748.03;;;17.26;54.13
86111;BME280;76766;52.874;11.218;2024-02-28T03:18:25;101748.03;;;17.26;54.14
86111;BME280;76766;52.874;11.218;2024-02-28T03:20:50;101750.72;;;17.26;54.13
86111;BME280;76766;52.874;11.218;2024-02-28T03:23:15;101749.03;;;17.25;54.09
86111;BME280;76766;52.874;11.218;2024-02-28T03:25:41;101750.09;;;17.24;54.17
86111;BME280;76766;52.874;11.218;2024-02-28T03:28:06;101759.84;;;17.25;54.20
86111;BME280;76766;52.874;11.218;2024-02-28T03:30:32;101769.81;;;17.25;54.16
86111;BME280;76766;52.874;11.218;2024-02-28T03:32:57;101770.00;;;17.23;54.18
86111;BME280;76766;52.874;11.218;2024-02-28T03:35:22;101771.69;;;17.24;54.11
86111;BME280;76766;52.874;11.218;2024-02-28T03:37:47;101772.06;;;17.21;54.31
86111;BME280;76766;52.874;11.218;2024-02-28T03:40:13;101781.19;;;17.20;54.37
86111;BME280;76766;52.874;11.218;2024-02-28T03:42:40;101770.38;;;17.20;54.26
86111;BME280;76766;52.874;11.218;2024-02-28T03:45:05;101776.63;;;17.21;54.33
86111;BME280;76766;52.874;11.218;2024-02-28T03:47:31;101780.34;;;17.20;54.38
86111;BME280;76766;52.874;11.218;2024-02-28T03:49:56;101776.00;;;17.19;54.33
86111;BME280;76766;52.874;11.218;2024-02-28T03:52:23;101773.47;;;17.17;54.35
86111;BME280;76766;52.874;11.218;2024-02-28T03:54:48;101765.38;;;17.17;54.38
86111;BME280;76766;52.874;11.218;2024-02-28T03:57:13;101759.97;;;17.17;54.31
86111;BME280;76766;52.874;11.218;2024-02-28T03:59:40;101763.69;;;17.16;54.35
86111;BME280;76766;52.874;11.218;2024-02-28T04:02:06;101775.31;;;17.17;54.36
86111;BME280;76766;52.874;11.218;2024-02-28T04:04:31;101773.69;;;17.16;54.33
86111;BME280;76766;52.874;11.218;2024-02-28T04:06:57;101775.53;;;17.15;54.32
86111;BME280;76766;52.874;11.218;2024-02-28T04:09:22;101780.31;;;17.13;54.48
86111;BME280;76766;52.874;11.218;2024-02-28T04:11:47;101785.69;;;17.13;54.47
86111;BME280;76766;52.874;11.218;2024-02-28T04:14:13;101804.59;;;17.13;54.45
86111;BME280;76766;52.874;11.218;2024-02-28T04:16:42;101797.50;;;17.12;54.49
86111;BME280;76766;52.874;11.218;2024-02-28T04:19:09;101801.22;;;17.11;54.43
86111;BME280;76766;52.874;11.218;2024-02-28T04:21:35;101813.06;;;17.10;54.47
86111;BME280;76766;52.874;11.218;2024-02-28T04:24:00;101814.72;;;17.11;54.43
86111;BME280;76766;52.874;11.218;2024-02-28T04:26:26;101812.22;;;17.09;54.40
86111;BME280;76766;52.874;11.218;2024-02-28T04:28:51;101810.53;;;17.08;54.48
86111;BME280;76766;52.874;11.218;2024-02-28T04:31:16;101812.22;;;17.09;54.50
86111;BME280;76766;52.874;11.218;2024-02-28T04:33:42;101813.25;;;17.08;54.52
86111;BME280;76766;52.874;11.218;2024-02-28T04:36:07;101817.78;;;17.08;54.39
86111;BME280;76766;52.874;11.218;2024-02-28T04:38:32;101822.56;;;17.06;54.44
86111;BME280;76766;52.874;11.218;2024-02-28T04:40:58;101830.44;;;17.07;54.53
86111;BME280;76766;52.874;11.218;2024-02-28T04:43:23;101834.19;;;17.06;54.46
86111;BME280;76766;52.874;11.218;2024-02-28T04:45:48;101841.44;;;17.06;54.39
86111;BME280;76766;52.874;11.218;2024-02-28T04:48:14;101831.88;;;17.03;54.47
86111;BME280;76766;52.874;11.218;2024-02-28T04:50:39;101828.16;;;17.04;54.72
86111;BME280;76766;52.874;11.218;2024-02-28T04:53:04;101838.28;;;17.02;54.74
86111;BME280;76766;52.874;11.218;2024-02-28T04:55:30;101838.28;;;17.02;54.65
86111;BME280;76766;52.874;11.218;2024-02-28T04:57:55;101834.97;;;17.00;54.62
86111;BME280;76766;52.874;11.218;2024-02-28T05:00:20;101829.56;;;17.00;54.59
86111;BME280;76766;52.874;11.218;2024-02-28T05:02:46;101833.94;;;17.01;54.63
86111;BME280;76766;52.874;11.218;2024-02-28T05:05:11;101836.81;;;17.00;54.54
86111;BME280;76766;52.874;11.218;2024-02-28T05:07:36;101838.50;;;17.01;54.58
86111;BME280;76766;52.874;11.218;2024-02-28T05:10:02;101843.06;;;17.00;54.54
86111;BME280;76766;52.874;11.218;2024-02-28T05:12:27;101842.41;;;16.98;54.68
86111;BME280;76766;52.874;11.218;2024-02-28T05:14:53;101848.81;;;16.97;54.65
86111;BME280;76766;52.874;11.218;2024-02-28T05:17:18;101853.38;;;16.97;54.66
86111;BME280;76766;52.874;11.218;2024-02-28T05:19:43;101850.69;;;16.97;54.74
86111;BME280;76766;52.874;11.218;2024-02-28T05:22:09;101846.34;;;16.96;54.67
86111;BME280;76766;52.874;11.218;2024-02-28T05:24:36;101848.19;;;16.95;54.60
86111;BME280;76766;52.874;11.218;2024-02-28T05:27:02;101851.91;;;16.94;54.71
86111;BME280;76766;52.874;11.218;2024-02-28T05:29:27;101854.59;;;16.94;54.57
86111;BME280;76766;52.874;11.218;2024-02-28T05:31:52;101852.09;;;16.93;54.63
86111;BME280;76766;52.874;11.218;2024-02-28T05:34:18;101856.66;;;16.92;54.74
86111;BME280;76766;52.874;11.218;2024-02-28T05:36:43;101853.13;;;16.92;54.63
86111;BME280;76766;52.874;11.218;2024-02-28T05:39:09;101858.53;;;16.92;54.79
86111;BME280;76766;52.874;11.218;2024-02-28T05:41:34;101846.88;;;16.91;54.70
86111;BME280;76766;52.874;11.218;2024-02-28T05:43:59;101861.22;;;16.92;54.72
86111;BME280;76766;52.874;11.218;2024-02-28T05:46:25;101853.13;;;16.92;54.73
86111;BME280;76766;52.874;11.218;2024-02-28T05:48:50;101856.84;;;16.91;54.82
86111;BME280;76766;52.874;11.218;2024-02-28T05:51:16;101854.13;;;16.91;54.64
86111;BME280;76766;52.874;11.218;2024-02-28T05:53:41;101869.31;;;16.92;54.75
86111;BME280;76766;52.874;11.218;2024-02-28T05:56:08;101873.69;;;16.93;54.66
86111;BME280;76766;52.874;11.218;2024-02-28T05:58:41;101874.50;;;16.93;54.71
86111;BME280;76766;52.874;11.218;2024-02-28T06:01:13;101878.03;;;16.94;54.65
86111;BME280;76766;52.874;11.218;2024-02-28T06:03:39;101881.41;;;16.96;54.72
86111;BME280;76766;52.874;11.218;2024-02-28T06:06:05;101874.50;;;16.93;54.73
86111;BME280;76766;52.874;11.218;2024-02-28T06:08:37;101880.56;;;16.95;54.64
86111;BME280;76766;52.874;11.218;2024-02-28T06:11:02;101887.81;;;16.95;54.71
86111;BME280;76766;52.874;11.218;2024-02-28T06:13:28;101890.50;;;16.95;54.70
86111;BME280;76766;52.874;11.218;2024-02-28T06:15:56;101897.59;;;16.96;54.66
86111;BME280;76766;52.874;11.218;2024-02-28T06:18:23;101894.88;;;16.96;54.70
86111;BME280;76766;52.874;11.218;2024-02-28T06:20:52;101894.88;;;16.96;54.64
86111;BME280;76766;52.874;11.218;2024-02-28T06:23:18;101908.38;;;16.96;54.34
86111;BME280;76766;52.874;11.218;2024-02-28T06:25:43;101908.38;;;16.96;54.64
86111;BME280;76766;52.874;11.218;2024-02-28T06:28:08;101913.78;;;16.96;54.71
86111;BME280;76766;52.874;11.218;2024-02-28T06:30:35;101915.63;;;16.95;54.85
86111;BME280;76766;52.874;11.218;2024-02-28T06:33:01;101920.19;;;16.95;54.74
86111;BME280;76766;52.874;11.218;2024-02-28T06:35:27;101929.28;;;16.94;54.70
86111;BME280;76766;52.874;11.218;2024-02-28T06:37:52;101929.97;;;16.96;54.70
86111;BME280;76766;52.874;11.218;2024-02-28T06:40:17;101933.66;;;16.95;54.72
86111;BME280;76766;52.874;11.218;2024-02-28T06:42:43;101926.59;;;16.94;54.77
86111;BME280;76766;52.874;11.218;2024-02-28T06:45:09;101929.13;;;16.95;54.64
86111;BME280;76766;52.874;11.218;2024-02-28T06:47:34;101926.22;;;16.97;54.63
86111;BME280;76766;52.874;11.218;2024-02-28T06:50:05;101919.81;;;16.98;54.70
86111;BME280;76766;52.874;11.218;2024-02-28T06:52:30;101918.75;;;16.99;54.89
86111;BME280;76766;52.874;11.218;2024-02-28T06:54:56;101928.75;;;16.98;54.61
86111;BME280;76766;52.874;11.218;2024-02-28T06:57:21;101938.47;;;16.99;54.67
86111;BME280;76766;52.874;11.218;2024-02-28T06:59:47;101934.94;;;16.99;54.67
86111;BME280;76766;52.874;11.218;2024-02-28T07:02:13;101933.09;;;16.99;54.54
86111;BME280;76766;52.874;11.218;2024-02-28T07:04:39;101927.31;;;17.02;54.71
86111;BME280;76766;52.874;11.218;2024-02-28T07:07:06;101932.53;;;17.04;54.56
86111;BME280;76766;52.874;11.218;2024-02-28T07:09:31;101932.53;;;17.04;54.49
86111;BME280;76766;52.874;11.218;2024-02-28T07:11:58;101937.94;;;17.04;54.54
86111;BME280;76766;52.874;11.218;2024-02-28T07:14:24;101933.38;;;17.04;54.48
86111;BME280;76766;52.874;11.218;2024-02-28T07:16:49;101943.13;;;17.05;54.47
86111;BME280;76766;52.874;11.218;2024-02-28T07:19:17;101943.34;;;17.04;54.62
86111;BME280;76766;52.874;11.218;2024-02-28T07:21:43;101944.81;;;17.06;54.53
86111;BME280;76766;52.874;11.218;2024-02-28T07:24:08;101947.50;;;17.06;54.46
86111;BME280;76766;52.874;11.218;2024-02-28T07:26:33;101957.66;;;17.04;54.47
86111;BME280;76766;52.874;11.218;2024-02-28T07:28:59;101955.78;;;17.05;54.46
86111;BME280;76766;52.874;11.218;2024-02-28T07:31:25;101950.59;;;17.03;54.48
86111;BME280;76766;52.874;11.218;2024-02-28T07:33:50;101948.72;;;17.04;54.65
86111;BME280;76766;52.874;11.218;2024-02-28T07:36:15;101953.28;;;17.03;54.57
86111;BME280;76766;52.874;11.218;2024-02-28T07:38:42;101957.84;;;17.03;54.51
86111;BME280;76766;52.874;11.218;2024-02-28T07:41:07;101955.13;;;17.03;54.64
86111;BME280;76766;52.874;11.218;2024-02-28T07:43:33;101951.59;;;17.02;54.64
86111;BME280;76766;52.874;11.218;2024-02-28T07:46:06;101957.84;;;17.03;54.61
86111;BME280;76766;52.874;11.218;2024-02-28T07:48:31;101958.22;;;17.00;54.39
86111;BME280;76766;52.874;11.218;2024-02-28T07:50:56;101959.06;;;17.00;54.63
86111;BME280;76766;52.874;11.218;2024-02-28T07:53:22;101970.00;;;16.99;54.64
86111;BME280;76766;52.874;11.218;2024-02-28T07:55:47;101961.91;;;16.99;54.67
86111;BME280;76766;52.874;11.218;2024-02-28T07:58:14;101975.41;;;16.99;54.62
86111;BME280;76766;52.874;11.218;2024-02-28T08:00:40;101968.16;;;16.99;54.71
86111;BME280;76766;52.874;11.218;2024-02-28T08:03:06;101968.16;;;16.99;54.62
86111;BME280;76766;52.874;11.218;2024-02-28T08:05:31;101963.81;;;16.98;54.66
86111;BME280;76766;52.874;11.218;2024-02-28T08:08:00;101969.00;;;17.00;54.62
86111;BME280;76766;52.874;11.218;2024-02-28T08:10:25;101961.13;;;16.98;54.63
86111;BME280;76766;52.874;11.218;2024-02-28T08:12:51;101965.94;;;17.03;54.50
86111;BME280;76766;52.874;11.218;2024-02-28T08:15:16;101975.50;;;17.05;54.42
86111;BME280;76766;52.874;11.218;2024-02-28T08:17:42;101976.34;;;17.06;54.37
86111;BME280;76766;52.874;11.218;2024-02-28T08:20:07;101976.13;;;17.07;54.62
86111;BME280;76766;52.874;11.218;2024-02-28T08:22:33;101970.75;;;17.07;54.43
86111;BME280;76766;52.874;11.218;2024-02-28T08:24:59;101976.59;;;17.11;54.29
86111;BME280;76766;52.874;11.218;2024-02-28T08:27:24;101962.75;;;17.14;54.21
86111;BME280;76766;52.874;11.218;2024-02-28T08:29:50;101973.41;;;17.22;54.09
86111;BME280;76766;52.874;11.218;2024-02-28T08:32:17;101977.03;;;17.29;54.41
86111;BME280;76766;52.874;11.218;2024-02-28T08:34:45;101973.75;;;17.34;54.46
86111;BME280;76766;52.874;11.218;2024-02-28T08:37:14;101971.53;;;17.37;54.11
86111;BME280;76766;52.874;11.218;2024-02-28T08:39:39;101972.25;;;17.46;53.65
86111;BME280;76766;52.874;11.218;2024-02-28T08:42:05;101971.44;;;17.67;53.02
86111;BME280;76766;52.874;11.218;2024-02-28T08:44:31;101971.84;;;17.85;52.72
86111;BME280;76766;52.874;11.218;2024-02-28T08:46:56;101969.63;;;17.95;52.56
86111;BME280;76766;52.874;11.218;2024-02-28T08:49:22;101978.06;;;18.06;52.50
86111;BME280;76766;52.874;11.218;2024-02-28T08:51:47;101979.81;;;18.20;52.11
86111;BME280;76766;52.874;11.218;2024-02-28T08:54:13;101972.38;;;18.50;51.49
86111;BME280;76766;52.874;11.218;2024-02-28T08:56:38;101976.09;;;18.84;50.77
86111;BME280;76766;52.874;11.218;2024-02-28T08:59:04;101978.16;;;19.29;49.50
86111;BME280;76766;52.874;11.218;2024-02-28T09:01:29;101985.38;;;19.69;48.61
86111;BME280;76766;52.874;11.218;2024-02-28T09:03:54;101979.78;;;20.04;47.80
86111;BME280;76766;52.874;11.218;2024-02-28T09:06:20;101971.25;;;20.39;46.74
86111;BME280;76766;52.874;11.218;2024-02-28T09:08:45;101980.38;;;20.71;46.35
86111;BME280;76766;52.874;11.218;2024-02-28T09:11:11;101987.38;;;20.98;45.80
86111;BME280;76766;52.874;11.218;2024-02-28T09:13:36;101984.56;;;21.25;45.50
86111;BME280;76766;52.874;11.218;2024-02-28T09:16:02;101980.28;;;21.48;44.89
86111;BME280;76766;52.874;11.218;2024-02-28T09:18:27;101981.38;;;21.72;44.56
86111;BME280;76766;52.874;11.218;2024-02-28T09:20:53;101981.03;;;21.93;44.11
86111;BME280;76766;52.874;11.218;2024-02-28T09:23:18;101980.66;;;22.14;43.58
86111;BME280;76766;52.874;11.218;2024-02-28T09:25:44;101985.06;;;22.34;43.30
86111;BME280;76766;52.874;11.218;2024-02-28T09:28:09;101985.72;;;22.54;42.75
86111;BME280;76766;52.874;11.218;2024-02-28T09:30:38;101993.31;;;22.70;42.76
86111;BME280;76766;52.874;11.218;2024-02-28T09:33:03;101987.28;;;22.86;42.28
86111;BME280;76766;52.874;11.218;2024-02-28T09:35:29;101990.22;;;23.03;42.28
86111;BME280;76766;52.874;11.218;2024-02-28T09:37:54;101994.22;;;23.18;41.88
86111;BME280;76766;52.874;11.218;2024-02-28T09:40:19;101999.94;;;23.28;41.68
86111;BME280;76766;52.874;11.218;2024-02-28T09:42:57;102000.28;;;23.39;41.34
86111;BME280;76766;52.874;11.218;2024-02-28T09:45:26;102000.94;;;23.52;40.81
86111;BME280;76766;52.874;11.218;2024-02-28T09:47:52;102001.13;;;23.51;41.10
86111;BME280;76766;52.874;11.218;2024-02-28T09:50:18;102000.72;;;23.65;40.92
86111;BME280;76766;52.874;11.218;2024-02-28T09:52:44;101999.69;;;23.78;41.92
86111;BME280;76766;52.874;11.218;2024-02-28T09:55:10;101995.13;;;23.90;40.74
86111;BME280;76766;52.874;11.218;2024-02-28T09:57:37;101988.09;;;23.82;40.42
86111;BME280;76766;52.874;11.218;2024-02-28T10:00:04;101990.56;;;23.72;40.98
86111;BME280;76766;52.874;11.218;2024-02-28T10:02:30;101992.88;;;23.57;41.93
86111;BME280;76766;52.874;11.218;2024-02-28T10:04:57;101998.38;;;23.39;42.56
86111;BME280;76766;52.874;11.218;2024-02-28T10:07:26;101991.78;;;23.10;41.85
86111;BME280;76766;52.874;11.218;2024-02-28T10:09:52;101992.41;;;22.94;43.22
86111;BME280;76766;52.874;11.218;2024-02-28T10:12:17;101986.97;;;22.76;43.29
86111;BME280;76766;52.874;11.218;2024-02-28T10:14:44;101986.56;;;22.54;43.91
86111;BME280;76766;52.874;11.218;2024-02-28T10:17:09;101986.59;;;22.48;44.13
86111;BME280;76766;52.874;11.218;2024-02-28T10:19:35;101990.47;;;22.40;44.62
86111;BME280;76766;52.874;11.218;2024-02-28T10:22:00;102004.72;;;22.36;45.05
86111;BME280;76766;52.874;11.218;2024-02-28T10:24:25;102010.16;;;22.36;44.90
86111;BME280;76766;52.874;11.218;2024-02-28T10:26:51;102010.59;;;22.33;45.25
86111;BME280;76766;52.874;11.218;2024-02-28T10:29:25;102015.88;;;22.28;45.44
86111;BME280;76766;52.874;11.218;2024-02-28T10:31:55;102024.88;;;22.28;45.75
86111;BME280;76766;52.874;11.218;2024-02-28T10:34:20;102022.28;;;22.40;45.52
86111;BME280;76766;52.874;11.218;2024-02-28T10:36:46;102020.50;;;22.27;45.38
86111;BME280;76766;52.874;11.218;2024-02-28T10:39:11;102020.34;;;22.22;45.61
86111;BME280;76766;52.874;11.218;2024-02-28T10:41:40;102024.50;;;22.25;45.55
86111;BME280;76766;52.874;11.218;2024-02-28T10:44:08;102026.63;;;22.23;45.67
86111;BME280;76766;52.874;11.218;2024-02-28T10:46:34;102019.94;;;22.19;45.80
86111;BME280;76766;52.874;11.218;2024-02-28T10:49:00;102026.00;;;22.21;45.84
86111;BME280;76766;52.874;11.218;2024-02-28T10:51:26;102023.91;;;22.23;45.78
86111;BME280;76766;52.874;11.218;2024-02-28T10:54:08;102024.38;;;22.13;46.28
86111;BME280;76766;52.874;11.218;2024-02-28T10:56:37;102026.91;;;22.14;46.45
86111;BME280;76766;52.874;11.218;2024-02-28T10:59:06;102023.56;;;22.12;46.65
86111;BME280;76766;52.874;11.218;2024-02-28T11:01:31;102016.06;;;22.08;46.89
86111;BME280;76766;52.874;11.218;2024-02-28T11:03:57;102013.94;;;22.10;46.86
86111;BME280;76766;52.874;11.218;2024-02-28T11:06:22;102015.22;;;22.07;46.83
86111;BME280;76766;52.874;11.218;2024-02-28T11:08:48;102007.25;;;22.12;46.64
86111;BME280;76766;52.874;11.218;2024-02-28T11:11:18;102014.34;;;22.13;46.77
86111;BME280;76766;52.874;11.218;2024-02-28T11:13:55;102008.13;;;22.06;47.02
86111;BME280;76766;52.874;11.218;2024-02-28T11:16:31;102007.47;;;22.11;46.90
86111;BME280;76766;52.874;11.218;2024-02-28T11:18:57;102009.34;;;22.10;46.70
86111;BME280;76766;52.874;11.218;2024-02-28T11:21:26;102005.41;;;22.06;46.79
86111;BME280;76766;52.874;11.218;2024-02-28T11:23:56;102001.19;;;22.10;47.00
86111;BME280;76766;52.874;11.218;2024-02-28T11:26:22;101994.69;;;22.11;46.79
86111;BME280;76766;52.874;11.218;2024-02-28T11:28:47;101999.31;;;22.11;46.69
86111;BME280;76766;52.874;11.218;2024-02-28T11:31:13;101998.06;;;22.07;46.44
86111;BME280;76766;52.874;11.218;2024-02-28T11:33:38;102002.91;;;22.05;46.81
86111;BME280;76766;52.874;11.218;2024-02-28T11:36:04;102008.84;;;21.95;45.56
86111;BME280;76766;52.874;11.218;2024-02-28T11:38:31;102001.97;;;21.86;45.51
86111;BME280;76766;52.874;11.218;2024-02-28T11:40:56;101995.91;;;21.84;45.89
86111;BME280;76766;52.874;11.218;2024-02-28T11:43:22;101995.75;;;21.79;45.77
86111;BME280;76766;52.874;11.218;2024-02-28T11:45:47;101996.34;;;21.81;45.56
86111;BME280;76766;52.874;11.218;2024-02-28T11:48:13;101988.63;;;21.78;45.87
86111;BME280;76766;52.874;11.218;2024-02-28T11:50:39;101987.41;;;21.74;45.59
86111;BME280;76766;52.874;11.218;2024-02-28T11:53:05;101976.75;;;21.73;46.18
86111;BME280;76766;52.874;11.218;2024-02-28T11:55:32;101978.88;;;21.71;46.56
86111;BME280;76766;52.874;11.218;2024-02-28T11:57:57;101982.63;;;21.70;46.43
86111;BME280;76766;52.874;11.218;2024-02-28T12:00:22;101976.81;;;21.66;46.06
86111;BME280;76766;52.874;11.218;2024-02-28T12:02:48;101973.47;;;21.64;46.50
86111;BME280;76766;52.874;11.218;2024-02-28T12:05:13;101967.22;;;21.64;46.27
86111;BME280;76766;52.874;11.218;2024-02-28T12:07:39;101963.88;;;21.62;46.25
86111;BME280;76766;52.874;11.218;2024-02-28T12:10:05;101964.72;;;21.62;46.59
86111;BME280;76766;52.874;11.218;2024-02-28T12:12:31;101968.94;;;21.58;46.64
86111;BME280;76766;52.874;11.218;2024-02-28T12:15:00;101968.13;;;21.51;46.05
86111;BME280;76766;52.874;11.218;2024-02-28T12:17:28;101973.41;;;21.46;46.00
86111;BME280;76766;52.874;11.218;2024-02-28T12:19:54;101974.25;;;21.40;45.93
86111;BME280;76766;52.874;11.218;2024-02-28T12:22:21;101964.88;;;21.36;46.53
86111;BME280;76766;52.874;11.218;2024-02-28T12:24:46;101952.78;;;21.32;46.53
86111;BME280;76766;52.874;11.218;2024-02-28T12:27:12;101955.09;;;21.28;46.63
86111;BME280;76766;52.874;11.218;2024-02-28T12:29:38;101953.66;;;21.26;46.93
86111;BME280;76766;52.874;11.218;2024-02-28T12:32:03;101957.84;;;21.22;46.81
86111;BME280;76766;52.874;11.218;2024-02-28T12:34:29;101959.34;;;21.18;47.17